sensor_id;sensor_type;location;lat;lon;timestamp;pressure;altitude;pressure_sealevel;temperature;humidity
75650;BME280;64245;51.282;22.494;2022-12-29T00:02:01;99307.31;;;1.64;79.32
75650;BME280;64245;51.282;22.494;2022-12-29T00:04:26;99303.22;;;1.58;79.53
75650;BME280;64245;51.282;22.494;2022-12-29T00:06:52;99299.13;;;1.53;79.89
75650;BME280;64245;51.282;22.494;2022-12-29T00:09:18;99310.13;;;1.61;80.12
75650;BME280;64245;51.282;22.494;2022-12-29T00:11:44;99286.63;;;1.39;80.29
75650;BME280;64245;51.282;22.494;2022-12-29T00:14:11;99303.50;;;1.54;80.02
75650;BME280;64245;51.282;22.494;2022-12-29T00:16:56;99299.00;;;1.54;79.72
75650;BME280;64245;51.282;22.494;2022-12-29T00:19:22;99295.53;;;1.54;79.57
75650;BME280;64245;51.282;22.494;2022-12-29T00:22:09;99306.63;;;1.60;79.97
75650;BME280;64245;51.282;22.494;2022-12-29T00:24:54;99301.88;;;1.51;80.01
75650;BME280;64245;51.282;22.494;2022-12-29T00:27:20;99308.97;;;1.51;80.04
75650;BME280;64245;51.282;22.494;2022-12-29T00:30:16;99279.91;;;1.33;80.72
75650;BME280;64245;51.282;22.494;2022-12-29T00:33:08;99294.34;;;1.44;80.44
75650;BME280;64245;51.282;22.494;2022-12-29T00:36:02;99297.31;;;1.37;80.86
75650;BME280;64245;51.282;22.494;2022-12-29T00:38:31;99307.81;;;1.55;80.32
75650;BME280;64245;51.282;22.494;2022-12-29T00:41:16;99310.78;;;1.50;80.18
75650;BME280;64245;51.282;22.494;2022-12-29T00:44:01;99314.44;;;1.48;80.17
75650;BME280;64245;51.282;22.494;2022-12-29T00:46:33;99313.94;;;1.41;80.22
75650;BME280;64245;51.282;22.494;2022-12-29T00:49:00;99299.91;;;1.39;80.22
75650;BME280;64245;51.282;22.494;2022-12-29T00:51:45;99301.84;;;1.35;81.19
75650;BME280;64245;51.282;22.494;2022-12-29T00:54:12;99307.06;;;1.37;80.93
75650;BME280;64245;51.282;22.494;2022-12-29T00:56:38;99309.72;;;1.37;80.66
75650;BME280;64245;51.282;22.494;2022-12-29T00:59:07;99294.69;;;1.22;81.12
75650;BME280;64245;51.282;22.494;2022-12-29T01:01:34;99300.06;;;1.20;81.20
75650;BME280;64245;51.282;22.494;2022-12-29T01:04:00;99300.25;;;1.17;82.02
75650;BME280;64245;51.282;22.494;2022-12-29T01:06:26;99286.66;;;1.23;81.13
75650;BME280;64245;51.282;22.494;2022-12-29T01:08:52;99291.25;;;1.04;82.38
75650;BME280;64245;51.282;22.494;2022-12-29T01:11:40;99280.75;;;1.02;82.32
75650;BME280;64245;51.282;22.494;2022-12-29T01:14:06;99258.84;;;0.99;82.02
75650;BME280;64245;51.282;22.494;2022-12-29T01:16:33;99274.81;;;0.97;82.50
75650;BME280;64245;51.282;22.494;2022-12-29T01:18:59;99271.84;;;1.03;82.19
75650;BME280;64245;51.282;22.494;2022-12-29T01:21:24;99257.66;;;0.89;82.33
75650;BME280;64245;51.282;22.494;2022-12-29T01:23:50;99259.28;;;0.76;83.56
75650;BME280;64245;51.282;22.494;2022-12-29T01:26:17;99266.38;;;0.91;82.97
75650;BME280;64245;51.282;22.494;2022-12-29T01:28:44;99250.03;;;0.83;83.10
75650;BME280;64245;51.282;22.494;2022-12-29T01:31:11;99252.28;;;0.90;82.34
75650;BME280;64245;51.282;22.494;2022-12-29T01:33:37;99261.06;;;0.91;82.06
75650;BME280;64245;51.282;22.494;2022-12-29T01:36:05;99272.69;;;1.04;82.54
75650;BME280;64245;51.282;22.494;2022-12-29T01:38:31;99264.22;;;0.97;82.62
75650;BME280;64245;51.282;22.494;2022-12-29T01:40:57;99271.00;;;0.87;83.15
75650;BME280;64245;51.282;22.494;2022-12-29T01:43:45;99266.31;;;0.92;82.84
75650;BME280;64245;51.282;22.494;2022-12-29T01:48:52;99253.38;;;1.02;82.14
75650;BME280;64245;51.282;22.494;2022-12-29T01:51:21;99255.78;;;1.07;82.56
75650;BME280;64245;51.282;22.494;2022-12-29T01:53:48;99247.81;;;1.07;82.24
75650;BME280;64245;51.282;22.494;2022-12-29T01:56:16;99229.44;;;0.88;82.51
75650;BME280;64245;51.282;22.494;2022-12-29T01:58:45;99220.53;;;0.89;82.61
75650;BME280;64245;51.282;22.494;2022-12-29T02:01:11;99240.56;;;0.94;82.69
75650;BME280;64245;51.282;22.494;2022-12-29T02:03:37;99256.38;;;0.96;82.72
75650;BME280;64245;51.282;22.494;2022-12-29T02:06:25;99244.63;;;1.00;81.96
75650;BME280;64245;51.282;22.494;2022-12-29T02:08:55;99252.69;;;0.83;83.56
75650;BME280;64245;51.282;22.494;2022-12-29T02:11:25;99243.25;;;0.77;83.52
75650;BME280;64245;51.282;22.494;2022-12-29T02:13:52;99214.63;;;0.68;83.04
75650;BME280;64245;51.282;22.494;2022-12-29T02:19:42;99232.69;;;0.93;82.58
75650;BME280;64245;51.282;22.494;2022-12-29T02:22:29;99233.19;;;0.99;82.20
75650;BME280;64245;51.282;22.494;2022-12-29T02:28:17;99217.63;;;0.93;82.33
75650;BME280;64245;51.282;22.494;2022-12-29T02:34:10;99197.44;;;0.91;82.40
75650;BME280;64245;51.282;22.494;2022-12-29T02:36:51;99209.66;;;1.09;81.57
75650;BME280;64245;51.282;22.494;2022-12-29T02:39:30;99201.03;;;1.06;81.84
75650;BME280;64245;51.282;22.494;2022-12-29T02:42:29;99205.22;;;1.10;82.10
75650;BME280;64245;51.282;22.494;2022-12-29T02:50:33;99194.03;;;0.89;82.54
75650;BME280;64245;51.282;22.494;2022-12-29T02:53:04;99197.69;;;0.86;82.98
75650;BME280;64245;51.282;22.494;2022-12-29T02:55:30;99201.22;;;0.87;83.12
75650;BME280;64245;51.282;22.494;2022-12-29T03:00:37;99190.69;;;0.85;82.85
75650;BME280;64245;51.282;22.494;2022-12-29T03:03:23;99202.59;;;0.94;82.69
75650;BME280;64245;51.282;22.494;2022-12-29T03:08:23;99208.38;;;1.00;82.10
75650;BME280;64245;51.282;22.494;2022-12-29T03:11:04;99205.25;;;0.94;82.30
75650;BME280;64245;51.282;22.494;2022-12-29T03:13:49;99213.19;;;0.94;82.57
75650;BME280;64245;51.282;22.494;2022-12-29T03:16:44;99207.34;;;1.03;82.80
75650;BME280;64245;51.282;22.494;2022-12-29T03:19:30;99204.00;;;0.99;81.74
75650;BME280;64245;51.282;22.494;2022-12-29T03:22:01;99188.19;;;0.98;81.90
75650;BME280;64245;51.282;22.494;2022-12-29T03:24:49;99183.75;;;0.98;82.22
75650;BME280;64245;51.282;22.494;2022-12-29T03:27:21;99184.69;;;0.97;82.64
75650;BME280;64245;51.282;22.494;2022-12-29T03:29:52;99195.56;;;1.09;81.91
75650;BME280;64245;51.282;22.494;2022-12-29T03:32:26;99196.75;;;1.03;82.41
75650;BME280;64245;51.282;22.494;2022-12-29T03:34:54;99195.28;;;1.13;81.32
75650;BME280;64245;51.282;22.494;2022-12-29T03:37:23;99197.78;;;1.00;82.72
75650;BME280;64245;51.282;22.494;2022-12-29T03:39:49;99185.09;;;1.06;82.33
75650;BME280;64245;51.282;22.494;2022-12-29T03:42:18;99192.91;;;1.09;81.68
75650;BME280;64245;51.282;22.494;2022-12-29T03:44:45;99176.38;;;1.03;81.27
75650;BME280;64245;51.282;22.494;2022-12-29T03:47:12;99194.16;;;1.17;81.83
75650;BME280;64245;51.282;22.494;2022-12-29T03:49:39;99188.19;;;1.14;81.50
75650;BME280;64245;51.282;22.494;2022-12-29T03:52:05;99201.25;;;1.17;81.80
75650;BME280;64245;51.282;22.494;2022-12-29T03:54:31;99180.41;;;1.11;81.80
75650;BME280;64245;51.282;22.494;2022-12-29T03:56:56;99193.88;;;1.22;80.65
75650;BME280;64245;51.282;22.494;2022-12-29T03:59:22;99197.84;;;1.15;81.77
75650;BME280;64245;51.282;22.494;2022-12-29T04:01:48;99191.00;;;1.11;81.67
75650;BME280;64245;51.282;22.494;2022-12-29T04:04:14;99185.88;;;1.08;81.65
75650;BME280;64245;51.282;22.494;2022-12-29T04:06:40;99191.44;;;1.03;81.93
75650;BME280;64245;51.282;22.494;2022-12-29T04:09:06;99202.22;;;1.00;81.95
75650;BME280;64245;51.282;22.494;2022-12-29T04:11:31;99193.94;;;1.06;82.26
75650;BME280;64245;51.282;22.494;2022-12-29T04:13:57;99170.22;;;1.03;81.28
75650;BME280;64245;51.282;22.494;2022-12-29T04:16:23;99166.03;;;0.99;81.53
75650;BME280;64245;51.282;22.494;2022-12-29T04:18:49;99177.94;;;1.08;81.49
75650;BME280;64245;51.282;22.494;2022-12-29T04:21:14;99162.34;;;1.01;81.02
75650;BME280;64245;51.282;22.494;2022-12-29T04:23:40;99176.22;;;1.07;81.28
75650;BME280;64245;51.282;22.494;2022-12-29T04:26:07;99148.00;;;1.06;80.82
75650;BME280;64245;51.282;22.494;2022-12-29T04:28:35;99179.09;;;1.18;81.38
75650;BME280;64245;51.282;22.494;2022-12-29T04:31:02;99179.38;;;1.13;81.98
75650;BME280;64245;51.282;22.494;2022-12-29T04:33:28;99165.91;;;1.16;81.00
75650;BME280;64245;51.282;22.494;2022-12-29T04:35:53;99170.78;;;1.24;80.80
75650;BME280;64245;51.282;22.494;2022-12-29T04:38:20;99166.59;;;1.20;80.87
75650;BME280;64245;51.282;22.494;2022-12-29T04:40:46;99160.91;;;1.12;80.52
75650;BME280;64245;51.282;22.494;2022-12-29T04:43:13;99142.69;;;1.06;80.73
75650;BME280;64245;51.282;22.494;2022-12-29T04:45:43;99156.72;;;1.08;81.38
75650;BME280;64245;51.282;22.494;2022-12-29T04:48:08;99161.75;;;1.12;81.25
75650;BME280;64245;51.282;22.494;2022-12-29T04:50:34;99164.50;;;1.11;81.63
75650;BME280;64245;51.282;22.494;2022-12-29T04:53:00;99161.06;;;1.09;81.11
75650;BME280;64245;51.282;22.494;2022-12-29T04:55:26;99148.84;;;1.06;81.18
75650;BME280;64245;51.282;22.494;2022-12-29T04:57:52;99168.22;;;1.22;81.11
75650;BME280;64245;51.282;22.494;2022-12-29T05:00:17;99143.09;;;1.14;81.03
75650;BME280;64245;51.282;22.494;2022-12-29T05:02:43;99154.34;;;1.33;79.73
75650;BME280;64245;51.282;22.494;2022-12-29T05:05:09;99139.91;;;1.23;80.06
75650;BME280;64245;51.282;22.494;2022-12-29T05:07:35;99141.25;;;1.30;79.63
75650;BME280;64245;51.282;22.494;2022-12-29T05:10:00;99149.03;;;1.33;79.95
75650;BME280;64245;51.282;22.494;2022-12-29T05:12:30;99135.53;;;1.22;79.38
75650;BME280;64245;51.282;22.494;2022-12-29T05:14:56;99152.63;;;1.32;80.03
75650;BME280;64245;51.282;22.494;2022-12-29T05:20:40;99133.13;;;1.33;80.12
75650;BME280;64245;51.282;22.494;2022-12-29T05:23:06;99161.56;;;1.45;80.66
75650;BME280;64245;51.282;22.494;2022-12-29T05:25:31;99148.44;;;1.28;81.78
75650;BME280;64245;51.282;22.494;2022-12-29T05:27:57;99155.84;;;1.37;82.17
75650;BME280;64245;51.282;22.494;2022-12-29T05:30:23;99155.38;;;1.30;81.27
75650;BME280;64245;51.282;22.494;2022-12-29T05:32:49;99132.63;;;1.26;81.29
75650;BME280;64245;51.282;22.494;2022-12-29T05:35:14;99111.84;;;1.19;83.21
75650;BME280;64245;51.282;22.494;2022-12-29T05:37:40;99129.88;;;1.28;82.89
75650;BME280;64245;51.282;22.494;2022-12-29T05:40:06;99131.50;;;1.30;81.57
75650;BME280;64245;51.282;22.494;2022-12-29T05:42:32;99130.16;;;1.23;83.21
75650;BME280;64245;51.282;22.494;2022-12-29T05:44:58;99117.53;;;1.13;83.89
75650;BME280;64245;51.282;22.494;2022-12-29T05:47:24;99115.53;;;1.16;84.18
75650;BME280;64245;51.282;22.494;2022-12-29T05:49:49;99112.47;;;1.08;85.44
75650;BME280;64245;51.282;22.494;2022-12-29T05:52:46;99118.84;;;1.20;85.17
75650;BME280;64245;51.282;22.494;2022-12-29T05:55:12;99102.66;;;1.10;85.06
75650;BME280;64245;51.282;22.494;2022-12-29T05:57:37;99110.50;;;1.12;84.74
75650;BME280;64245;51.282;22.494;2022-12-29T06:00:04;99098.19;;;1.11;83.99
75650;BME280;64245;51.282;22.494;2022-12-29T06:02:30;99098.19;;;1.11;84.42
75650;BME280;64245;51.282;22.494;2022-12-29T06:04:56;99080.19;;;1.16;83.21
75650;BME280;64245;51.282;22.494;2022-12-29T06:07:22;99062.28;;;1.05;83.09
75650;BME280;64245;51.282;22.494;2022-12-29T06:09:48;99079.53;;;1.12;83.37
75650;BME280;64245;51.282;22.494;2022-12-29T06:12:13;99092.25;;;1.21;82.79
75650;BME280;64245;51.282;22.494;2022-12-29T06:14:39;99085.22;;;1.20;81.99
75650;BME280;64245;51.282;22.494;2022-12-29T06:17:05;99095.47;;;1.26;83.13
75650;BME280;64245;51.282;22.494;2022-12-29T06:19:32;99097.03;;;1.30;83.40
75650;BME280;64245;51.282;22.494;2022-12-29T06:21:57;99087.16;;;1.32;81.69
75650;BME280;64245;51.282;22.494;2022-12-29T06:24:23;99102.22;;;1.32;81.72
75650;BME280;64245;51.282;22.494;2022-12-29T06:26:49;99092.59;;;1.45;80.26
75650;BME280;64245;51.282;22.494;2022-12-29T06:29:15;99089.47;;;1.53;79.95
75650;BME280;64245;51.282;22.494;2022-12-29T06:31:44;99099.34;;;1.51;79.48
75650;BME280;64245;51.282;22.494;2022-12-29T06:34:14;99103.97;;;1.47;80.21
75650;BME280;64245;51.282;22.494;2022-12-29T06:36:40;99102.16;;;1.48;79.80
75650;BME280;64245;51.282;22.494;2022-12-29T06:39:06;99092.00;;;1.54;78.84
75650;BME280;64245;51.282;22.494;2022-12-29T06:41:31;99086.50;;;1.43;79.09
75650;BME280;64245;51.282;22.494;2022-12-29T06:43:57;99109.94;;;1.51;79.92
75650;BME280;64245;51.282;22.494;2022-12-29T06:46:23;99088.50;;;1.39;79.45
75650;BME280;64245;51.282;22.494;2022-12-29T06:48:49;99101.81;;;1.54;79.36
75650;BME280;64245;51.282;22.494;2022-12-29T06:51:15;99094.13;;;1.63;77.85
75650;BME280;64245;51.282;22.494;2022-12-29T06:53:41;99080.38;;;1.57;78.10
75650;BME280;64245;51.282;22.494;2022-12-29T06:56:06;99088.81;;;1.63;78.12
75650;BME280;64245;51.282;22.494;2022-12-29T06:58:32;99090.34;;;1.67;77.97
75650;BME280;64245;51.282;22.494;2022-12-29T07:00:58;99081.78;;;1.77;76.74
75650;BME280;64245;51.282;22.494;2022-12-29T07:03:24;99074.13;;;1.72;77.42
75650;BME280;64245;51.282;22.494;2022-12-29T07:05:50;99087.50;;;1.85;76.71
75650;BME280;64245;51.282;22.494;2022-12-29T07:08:16;99065.28;;;1.57;77.28
75650;BME280;64245;51.282;22.494;2022-12-29T07:10:42;99085.03;;;1.67;78.54
75650;BME280;64245;51.282;22.494;2022-12-29T07:13:08;99086.16;;;1.78;76.57
75650;BME280;64245;51.282;22.494;2022-12-29T07:15:35;99089.88;;;1.89;75.95
75650;BME280;64245;51.282;22.494;2022-12-29T07:18:01;99081.25;;;1.86;76.39
75650;BME280;64245;51.282;22.494;2022-12-29T07:20:28;99084.38;;;1.92;75.39
75650;BME280;64245;51.282;22.494;2022-12-29T07:22:54;99080.00;;;1.91;75.26
75650;BME280;64245;51.282;22.494;2022-12-29T07:25:20;99100.09;;;2.10;74.82
75650;BME280;64245;51.282;22.494;2022-12-29T07:27:46;99113.66;;;2.19;74.76
75650;BME280;64245;51.282;22.494;2022-12-29T07:30:11;99098.09;;;2.13;74.47
75650;BME280;64245;51.282;22.494;2022-12-29T07:32:38;99092.22;;;2.08;75.06
75650;BME280;64245;51.282;22.494;2022-12-29T07:35:03;99102.53;;;2.13;74.28
75650;BME280;64245;51.282;22.494;2022-12-29T07:37:29;99080.00;;;2.05;74.91
75650;BME280;64245;51.282;22.494;2022-12-29T07:39:55;99098.84;;;2.15;74.92
75650;BME280;64245;51.282;22.494;2022-12-29T07:42:21;99094.59;;;2.27;73.85
75650;BME280;64245;51.282;22.494;2022-12-29T07:44:46;99071.25;;;2.18;74.24
75650;BME280;64245;51.282;22.494;2022-12-29T07:47:12;99073.84;;;2.32;74.08
75650;BME280;64245;51.282;22.494;2022-12-29T07:49:38;99066.97;;;2.29;73.37
75650;BME280;64245;51.282;22.494;2022-12-29T07:52:04;99082.13;;;2.41;72.44
75650;BME280;64245;51.282;22.494;2022-12-29T07:54:30;99062.69;;;2.27;73.51
75650;BME280;64245;51.282;22.494;2022-12-29T07:56:55;99089.53;;;2.36;74.12
75650;BME280;64245;51.282;22.494;2022-12-29T07:59:22;99074.28;;;2.26;73.72
75650;BME280;64245;51.282;22.494;2022-12-29T08:01:48;99081.69;;;2.21;73.68
75650;BME280;64245;51.282;22.494;2022-12-29T08:04:14;99079.59;;;2.26;74.00
75650;BME280;64245;51.282;22.494;2022-12-29T08:06:40;99061.84;;;2.12;74.63
75650;BME280;64245;51.282;22.494;2022-12-29T08:09:06;99073.72;;;2.21;74.44
75650;BME280;64245;51.282;22.494;2022-12-29T08:11:31;99069.53;;;2.17;74.32
75650;BME280;64245;51.282;22.494;2022-12-29T08:13:57;99051.03;;;2.15;74.02
75650;BME280;64245;51.282;22.494;2022-12-29T08:16:23;99031.53;;;2.02;74.35
75650;BME280;64245;51.282;22.494;2022-12-29T08:18:49;99032.28;;;2.04;74.20
75650;BME280;64245;51.282;22.494;2022-12-29T08:21:15;99044.22;;;2.11;73.80
75650;BME280;64245;51.282;22.494;2022-12-29T08:23:40;99061.13;;;2.10;74.48
75650;BME280;64245;51.282;22.494;2022-12-29T08:26:06;99051.34;;;2.11;74.94
75650;BME280;64245;51.282;22.494;2022-12-29T08:28:32;99044.22;;;2.11;74.14
75650;BME280;64245;51.282;22.494;2022-12-29T08:30:59;99063.22;;;2.32;73.73
75650;BME280;64245;51.282;22.494;2022-12-29T08:33:26;99080.53;;;2.25;74.54
75650;BME280;64245;51.282;22.494;2022-12-29T08:35:52;99049.50;;;2.25;73.79
75650;BME280;64245;51.282;22.494;2022-12-29T08:38:23;99061.50;;;2.45;73.47
75650;BME280;64245;51.282;22.494;2022-12-29T08:40:51;99063.41;;;2.43;73.39
75650;BME280;64245;51.282;22.494;2022-12-29T08:43:16;99065.97;;;2.45;73.81
75650;BME280;64245;51.282;22.494;2022-12-29T08:45:42;99075.56;;;2.47;73.92
75650;BME280;64245;51.282;22.494;2022-12-29T08:48:07;99061.31;;;2.48;73.07
75650;BME280;64245;51.282;22.494;2022-12-29T08:50:33;99069.13;;;2.64;72.42
75650;BME280;64245;51.282;22.494;2022-12-29T08:52:59;99070.13;;;2.75;72.21
75650;BME280;64245;51.282;22.494;2022-12-29T08:55:25;99064.03;;;2.61;73.64
75650;BME280;64245;51.282;22.494;2022-12-29T08:57:50;99063.00;;;2.76;72.83
75650;BME280;64245;51.282;22.494;2022-12-29T09:00:17;99067.53;;;2.88;72.47
75650;BME280;64245;51.282;22.494;2022-12-29T09:02:43;99046.28;;;2.74;72.33
75650;BME280;64245;51.282;22.494;2022-12-29T09:05:09;99054.22;;;2.88;71.92
75650;BME280;64245;51.282;22.494;2022-12-29T09:07:35;99063.38;;;2.97;71.66
75650;BME280;64245;51.282;22.494;2022-12-29T09:10:01;99040.31;;;2.97;71.02
75650;BME280;64245;51.282;22.494;2022-12-29T09:12:26;99055.84;;;3.03;71.16
75650;BME280;64245;51.282;22.494;2022-12-29T09:14:52;99061.66;;;3.23;71.03
75650;BME280;64245;51.282;22.494;2022-12-29T09:17:18;99055.56;;;3.21;71.65
75650;BME280;64245;51.282;22.494;2022-12-29T09:20:03;99051.09;;;3.21;71.34
75650;BME280;64245;51.282;22.494;2022-12-29T09:22:28;99054.22;;;3.40;70.52
75650;BME280;64245;51.282;22.494;2022-12-29T09:24:54;99033.31;;;3.34;70.80
75650;BME280;64245;51.282;22.494;2022-12-29T09:27:20;99048.03;;;3.53;70.30
75650;BME280;64245;51.282;22.494;2022-12-29T09:29:46;99025.56;;;3.44;71.55
75650;BME280;64245;51.282;22.494;2022-12-29T09:32:11;99042.06;;;3.49;71.28
75650;BME280;64245;51.282;22.494;2022-12-29T09:34:37;99027.59;;;3.53;71.37
75650;BME280;64245;51.282;22.494;2022-12-29T09:37:02;99013.00;;;3.59;70.34
75650;BME280;64245;51.282;22.494;2022-12-29T09:39:28;99014.16;;;3.55;70.44
75650;BME280;64245;51.282;22.494;2022-12-29T09:47:23;99005.66;;;3.62;69.49
75650;BME280;64245;51.282;22.494;2022-12-29T09:50:24;99012.22;;;3.69;70.03
75650;BME280;64245;51.282;22.494;2022-12-29T09:52:47;99011.47;;;3.80;69.27
75650;BME280;64245;51.282;22.494;2022-12-29T09:55:17;99004.25;;;3.69;69.71
75650;BME280;64245;51.282;22.494;2022-12-29T09:57:57;99010.31;;;3.71;69.66
75650;BME280;64245;51.282;22.494;2022-12-29T10:00:40;99008.28;;;3.75;69.59
75650;BME280;64245;51.282;22.494;2022-12-29T10:03:17;99007.44;;;3.74;70.57
75650;BME280;64245;51.282;22.494;2022-12-29T10:06:04;99013.72;;;3.73;70.09
75650;BME280;64245;51.282;22.494;2022-12-29T10:21:52;98981.50;;;3.89;69.68
75650;BME280;64245;51.282;22.494;2022-12-29T10:24:22;98988.28;;;4.06;69.31
75650;BME280;64245;51.282;22.494;2022-12-29T10:26:51;98996.91;;;4.09;68.65
75650;BME280;64245;51.282;22.494;2022-12-29T10:32:02;99007.78;;;4.19;68.08
75650;BME280;64245;51.282;22.494;2022-12-29T10:34:36;99003.41;;;4.18;68.47
75650;BME280;64245;51.282;22.494;2022-12-29T10:37:17;98994.88;;;4.13;68.76
75650;BME280;64245;51.282;22.494;2022-12-29T10:39:53;98996.69;;;4.12;68.82
75650;BME280;64245;51.282;22.494;2022-12-29T10:45:23;98972.31;;;4.30;67.63
75650;BME280;64245;51.282;22.494;2022-12-29T10:47:55;98964.66;;;4.25;69.44
75650;BME280;64245;51.282;22.494;2022-12-29T10:50:24;98964.00;;;4.34;68.41
75650;BME280;64245;51.282;22.494;2022-12-29T10:52:51;98946.63;;;4.29;68.88
75650;BME280;64245;51.282;22.494;2022-12-29T10:55:22;98952.91;;;4.28;68.50
75650;BME280;64245;51.282;22.494;2022-12-29T10:57:50;98950.16;;;4.29;67.69
75650;BME280;64245;51.282;22.494;2022-12-29T11:00:18;98955.78;;;4.37;68.14
75650;BME280;64245;51.282;22.494;2022-12-29T11:05:37;98957.94;;;4.67;67.89
75650;BME280;64245;51.282;22.494;2022-12-29T11:08:12;98930.31;;;4.68;67.25
75650;BME280;64245;51.282;22.494;2022-12-29T11:10:41;98930.38;;;4.79;66.65
75650;BME280;64245;51.282;22.494;2022-12-29T11:13:48;98945.66;;;4.89;66.58
75650;BME280;64245;51.282;22.494;2022-12-29T11:16:13;98944.41;;;4.81;67.50
75650;BME280;64245;51.282;22.494;2022-12-29T11:18:40;98927.44;;;4.82;68.19
75650;BME280;64245;51.282;22.494;2022-12-29T11:21:28;98944.06;;;4.86;67.75
75650;BME280;64245;51.282;22.494;2022-12-29T11:24:01;98932.19;;;4.79;67.86
75650;BME280;64245;51.282;22.494;2022-12-29T11:26:29;98945.03;;;4.85;67.65
75650;BME280;64245;51.282;22.494;2022-12-29T11:29:24;98946.81;;;4.73;67.35
75650;BME280;64245;51.282;22.494;2022-12-29T11:31:58;98951.22;;;4.85;66.94
75650;BME280;64245;51.282;22.494;2022-12-29T11:34:30;98953.31;;;4.93;66.98
75650;BME280;64245;51.282;22.494;2022-12-29T11:37:04;98955.34;;;4.90;67.38
75650;BME280;64245;51.282;22.494;2022-12-29T11:39:36;98944.16;;;5.19;65.39
75650;BME280;64245;51.282;22.494;2022-12-29T11:42:05;98941.00;;;5.48;64.50
75650;BME280;64245;51.282;22.494;2022-12-29T11:44:43;98955.94;;;5.73;65.06
75650;BME280;64245;51.282;22.494;2022-12-29T11:47:13;98949.97;;;5.47;65.53
75650;BME280;64245;51.282;22.494;2022-12-29T11:49:49;98936.63;;;5.69;64.62
75650;BME280;64245;51.282;22.494;2022-12-29T11:52:16;98931.75;;;5.85;64.35
75650;BME280;64245;51.282;22.494;2022-12-29T11:54:46;98936.78;;;5.57;64.54
75650;BME280;64245;51.282;22.494;2022-12-29T11:57:15;98925.00;;;5.37;66.01
75650;BME280;64245;51.282;22.494;2022-12-29T11:59:54;98937.72;;;5.44;66.04
75650;BME280;64245;51.282;22.494;2022-12-29T12:02:33;98941.88;;;5.37;66.82
75650;BME280;64245;51.282;22.494;2022-12-29T12:05:16;98942.97;;;5.57;66.00
75650;BME280;64245;51.282;22.494;2022-12-29T12:07:46;98930.56;;;5.56;65.99
75650;BME280;64245;51.282;22.494;2022-12-29T12:10:22;98936.88;;;5.66;66.07
75650;BME280;64245;51.282;22.494;2022-12-29T12:19:12;98932.41;;;5.55;66.17
75650;BME280;64245;51.282;22.494;2022-12-29T12:21:36;98938.94;;;5.40;66.76
75650;BME280;64245;51.282;22.494;2022-12-29T12:24:28;98940.41;;;5.55;65.15
75650;BME280;64245;51.282;22.494;2022-12-29T12:30:15;98936.88;;;5.55;66.25
75650;BME280;64245;51.282;22.494;2022-12-29T12:33:03;98935.53;;;5.27;67.12
75650;BME280;64245;51.282;22.494;2022-12-29T12:44:01;98931.53;;;5.33;67.61
75650;BME280;64245;51.282;22.494;2022-12-29T12:57:57;98936.03;;;5.54;66.33
75650;BME280;64245;51.282;22.494;2022-12-29T13:00:27;98929.72;;;5.44;67.23
75650;BME280;64245;51.282;22.494;2022-12-29T13:05:50;98928.13;;;5.42;66.98
75650;BME280;64245;51.282;22.494;2022-12-29T13:11:44;98931.66;;;5.42;67.75
75650;BME280;64245;51.282;22.494;2022-12-29T13:17:03;98931.88;;;5.39;68.25
75650;BME280;64245;51.282;22.494;2022-12-29T13:19:38;98936.03;;;5.43;68.29
75650;BME280;64245;51.282;22.494;2022-12-29T13:22:27;98930.31;;;5.48;67.93
75650;BME280;64245;51.282;22.494;2022-12-29T13:25:14;98939.03;;;5.39;68.68
75650;BME280;64245;51.282;22.494;2022-12-29T13:27:58;98923.63;;;5.20;68.85
75650;BME280;64245;51.282;22.494;2022-12-29T13:30:47;98936.63;;;5.36;68.79
75650;BME280;64245;51.282;22.494;2022-12-29T13:33:21;98939.44;;;5.34;68.15
75650;BME280;64245;51.282;22.494;2022-12-29T13:35:54;98933.25;;;5.34;68.77
75650;BME280;64245;51.282;22.494;2022-12-29T13:38:27;98922.41;;;5.24;68.02
75650;BME280;64245;51.282;22.494;2022-12-29T13:40:58;98930.91;;;5.29;69.23
75650;BME280;64245;51.282;22.494;2022-12-29T13:43:27;98944.00;;;5.21;68.84
75650;BME280;64245;51.282;22.494;2022-12-29T13:46:10;98941.59;;;5.18;69.22
75650;BME280;64245;51.282;22.494;2022-12-29T13:48:43;98929.56;;;5.12;68.15
75650;BME280;64245;51.282;22.494;2022-12-29T13:51:11;98947.78;;;5.18;68.43
75650;BME280;64245;51.282;22.494;2022-12-29T13:56:40;98960.97;;;4.98;69.55
75650;BME280;64245;51.282;22.494;2022-12-29T14:01:49;98952.69;;;4.90;70.17
75650;BME280;64245;51.282;22.494;2022-12-29T14:04:24;98931.56;;;4.86;70.60
75650;BME280;64245;51.282;22.494;2022-12-29T14:07:16;98955.13;;;5.04;69.61
75650;BME280;64245;51.282;22.494;2022-12-29T14:09:48;98940.22;;;5.01;69.47
75650;BME280;64245;51.282;22.494;2022-12-29T14:14:51;98942.19;;;4.99;69.34
75650;BME280;64245;51.282;22.494;2022-12-29T14:17:20;98927.41;;;4.71;69.89
75650;BME280;64245;51.282;22.494;2022-12-29T14:19:51;98924.75;;;4.71;69.67
75650;BME280;64245;51.282;22.494;2022-12-29T14:22:26;98935.97;;;4.53;70.81
75650;BME280;64245;51.282;22.494;2022-12-29T14:24:52;98939.25;;;4.56;70.82
75650;BME280;64245;51.282;22.494;2022-12-29T14:29:49;98934.13;;;4.53;71.61
75650;BME280;64245;51.282;22.494;2022-12-29T14:34:48;98948.41;;;4.41;71.84
75650;BME280;64245;51.282;22.494;2022-12-29T14:37:40;98944.25;;;4.37;72.21
75650;BME280;64245;51.282;22.494;2022-12-29T14:42:40;98933.38;;;4.16;72.63
75650;BME280;64245;51.282;22.494;2022-12-29T14:50:25;98929.16;;;4.25;72.75
75650;BME280;64245;51.282;22.494;2022-12-29T14:52:55;98937.09;;;4.13;73.10
75650;BME280;64245;51.282;22.494;2022-12-29T14:58:15;98935.69;;;3.97;74.00
75650;BME280;64245;51.282;22.494;2022-12-29T15:00:44;98941.66;;;4.00;73.97
75650;BME280;64245;51.282;22.494;2022-12-29T15:03:17;98937.31;;;4.10;73.82
75650;BME280;64245;51.282;22.494;2022-12-29T15:05:56;98943.16;;;3.92;74.71
75650;BME280;64245;51.282;22.494;2022-12-29T15:08:28;98925.88;;;3.97;74.24
75650;BME280;64245;51.282;22.494;2022-12-29T15:11:14;98940.47;;;3.92;74.75
75650;BME280;64245;51.282;22.494;2022-12-29T15:13:43;98928.44;;;3.86;74.39